Pagina principale
METAR-TAF:

METAR-TAF

Aeroporti :

Emmen, Svizzera

latitudine: 47-05-32N, longitudine: 8-18-16E, altezza: 426 m

Osservazione

Il bollettino è stato emesso 1 ora e 7 minuti fa, alle 10:50 UTC
Vento calmo
Temperature 4°C
Umidità 87%
Pressione 1020 hPa
Visibilità: 8000 m
Nuvoloso ad un'altezza di 2600 ft
Cielo coperto ad un'altezza di 3000 ft
rovesci di pioggia

METAR: LSME 191050Z AUTO 00000KT 8000NDV -SHRA BKN026 OVC030 04/02 Q1020 RMK

Ora: 12:57 (11:57 UTC)


TAF: mancante

Osservazioni e previsioni meteorologiche di più di 4000 aeroporti (messaggi METAR e TAF).

Le stazioni disponibili sono rappresentate dai dischi gialli e rossi sulla carta.

Puntare il mouse per vedere il nome della stazione.

Clicca sopra per visualizzare le osservazioni e previsioni meteorologiche.

Per cambiare la mappa : fare clic sui pulsanti verdi con una croce nera per ingrandire, il pulsante verde con un trattino per diminuire, o sulla freccia verde per le mappe adiacenti.


METAR-TAF: